Time;durP1;ratioP1;P1;durP2;ratioP2;P2;SDS_P1;SDS_P2;PMS_P1;PMS_P2;Temp;Humidity;BMP_temperature;BMP_pressure;BME280_temperature;BME280_humidity;BME280_pressure;Samples;Min_cycle;Max_cycle;Signal;HPM_P1;HPM_P2
2024/01/31 00:00:39;;;;;;;21.17;13.43;;;;;;;;;;5081006;28;20206;-63
2024/01/31 00:03:07;;;;;;;21.40;13.70;;;;;;;;;;5087586;28;20206;-63
2024/01/31 00:05:35;;;;;;;20.07;13.47;;;;;;;;;;5086247;28;20210;-64
2024/01/31 00:08:02;;;;;;;22.63;13.77;;;;;;;;;;5087426;28;20457;-63
2024/01/31 00:10:29;;;;;;;19.43;13.57;;;;;;;;;;5087364;28;20599;-64
2024/01/31 00:12:57;;;;;;;21.87;13.97;;;;;;;;;;5077181;28;20206;-64
2024/01/31 00:15:24;;;;;;;25.23;13.97;;;;;;;;;;5088361;28;20311;-64
2024/01/31 00:17:51;;;;;;;24.33;13.50;;;;;;;;;;5087356;28;20210;-64
2024/01/31 00:20:18;;;;;;;22.03;13.83;;;;;;;;;;5078517;28;20214;-64
2024/01/31 00:22:46;;;;;;;26.80;13.30;;;;;;;;;;5087701;28;20203;-64
2024/01/31 00:25:13;;;;;;;18.53;12.70;;;;;;;;;;5087647;28;20260;-64
2024/01/31 00:27:40;;;;;;;24.30;12.87;;;;;;;;;;5082726;28;20230;-63
2024/01/31 00:30:10;;;;;;;19.50;13.10;;;;;;;;;;5087084;28;20206;-63
2024/01/31 00:32:37;;;;;;;20.37;12.40;;;;;;;;;;5086571;28;20229;-64
2024/01/31 00:35:04;;;;;;;22.77;13.10;;;;;;;;;;5088250;28;20210;-64
2024/01/31 00:37:31;;;;;;;21.50;13.30;;;;;;;;;;5087516;28;20680;-64
2024/01/31 00:39:59;;;;;;;23.13;13.43;;;;;;;;;;5093932;28;20209;-64
2024/01/31 00:42:26;;;;;;;23.90;13.27;;;;;;;;;;5096639;28;20289;-64
2024/01/31 00:44:53;;;;;;;21.33;14.23;;;;;;;;;;5082165;28;20221;-64
2024/01/31 00:47:21;;;;;;;22.37;12.93;;;;;;;;;;5082762;28;20222;-63
2024/01/31 00:49:48;;;;;;;18.87;13.13;;;;;;;;;;5087486;28;20207;-64
2024/01/31 00:52:16;;;;;;;19.53;13.30;;;;;;;;;;5084837;28;20205;-64
2024/01/31 00:54:43;;;;;;;21.10;13.13;;;;;;;;;;5075308;28;20289;-64
2024/01/31 00:57:11;;;;;;;19.37;13.93;;;;;;;;;;5086593;28;20199;-64
2024/01/31 00:59:40;;;;;;;21.40;14.20;;;;;;;;;;5086428;28;20229;-63
2024/01/31 01:02:07;;;;;;;21.97;12.97;;;;;;;;;;5086622;28;20202;-63
2024/01/31 01:04:35;;;;;;;21.33;13.23;;;;;;;;;;5087361;28;20222;-64
2024/01/31 01:07:02;;;;;;;23.13;13.43;;;;;;;;;;5086880;28;20230;-64
2024/01/31 01:09:29;;;;;;;19.73;13.67;;;;;;;;;;5087170;28;20251;-64
2024/01/31 01:11:56;;;;;;;19.63;12.73;;;;;;;;;;5079043;28;20210;-64
2024/01/31 01:14:24;;;;;;;20.57;12.97;;;;;;;;;;5083308;28;20202;-63
2024/01/31 01:16:51;;;;;;;23.07;13.73;;;;;;;;;;5086964;28;20270;-63
2024/01/31 01:19:19;;;;;;;23.83;13.37;;;;;;;;;;5080759;28;20213;-64
2024/01/31 01:21:46;;;;;;;19.20;13.20;;;;;;;;;;5089403;28;20231;-64
2024/01/31 01:24:13;;;;;;;20.03;12.50;;;;;;;;;;5090542;28;20434;-63
2024/01/31 01:26:40;;;;;;;21.53;13.23;;;;;;;;;;5089307;28;20224;-63
2024/01/31 01:29:07;;;;;;;21.13;13.50;;;;;;;;;;5091147;28;20206;-63
2024/01/31 01:31:35;;;;;;;22.10;14.23;;;;;;;;;;5090317;28;20248;-63
2024/01/31 01:34:02;;;;;;;21.60;13.70;;;;;;;;;;5090860;28;20657;-63
2024/01/31 01:36:29;;;;;;;19.67;14.13;;;;;;;;;;5090413;28;20744;-63
2024/01/31 01:38:56;;;;;;;22.10;13.77;;;;;;;;;;5090504;28;20210;-64
2024/01/31 01:41:23;;;;;;;21.07;13.67;;;;;;;;;;5089226;28;20627;-63
2024/01/31 01:43:50;;;;;;;23.27;13.83;;;;;;;;;;5090262;28;20313;-63
2024/01/31 01:46:19;;;;;;;19.73;12.80;;;;;;;;;;5089858;28;20235;-63
2024/01/31 01:48:48;;;;;;;21.60;13.60;;;;;;;;;;5085186;28;20236;-64
2024/01/31 01:51:17;;;;;;;21.00;13.40;;;;;;;;;;5089639;28;20218;-64
2024/01/31 01:53:44;;;;;;;21.03;13.60;;;;;;;;;;5089193;28;20207;-63
2024/01/31 01:56:13;;;;;;;22.47;14.03;;;;;;;;;;5089910;28;20684;-64
2024/01/31 01:58:40;;;;;;;22.73;15.07;;;;;;;;;;5088810;28;20222;-64
2024/01/31 02:01:08;;;;;;;21.10;14.30;;;;;;;;;;5087383;28;20206;-64
2024/01/31 02:03:36;;;;;;;22.57;13.80;;;;;;;;;;5089907;28;20207;-64
2024/01/31 02:06:05;;;;;;;23.20;14.10;;;;;;;;;;5089149;28;20214;-63
2024/01/31 02:08:32;;;;;;;22.97;14.13;;;;;;;;;;5089450;28;20202;-64
2024/01/31 02:10:59;;;;;;;21.30;13.20;;;;;;;;;;5088413;28;20680;-64
2024/01/31 02:13:26;;;;;;;22.53;13.70;;;;;;;;;;5089506;28;20206;-64
2024/01/31 02:18:56;;;;;;;21.17;13.40;;;;;;;;;;5081617;28;20197;-64
2024/01/31 02:21:26;;;;;;;22.70;14.10;;;;;;;;;;5085415;28;20280;-64
2024/01/31 02:23:54;;;;;;;23.73;13.67;;;;;;;;;;5088755;28;20206;-64
2024/01/31 02:26:21;;;;;;;20.40;13.23;;;;;;;;;;5089045;28;20228;-64
2024/01/31 02:28:48;;;;;;;26.43;14.30;;;;;;;;;;5087366;28;20255;-64
2024/01/31 02:31:15;;;;;;;21.23;14.30;;;;;;;;;;5079451;28;20202;-64
2024/01/31 02:33:42;;;;;;;22.83;14.80;;;;;;;;;;5097786;28;20259;-64
2024/01/31 02:36:09;;;;;;;23.30;14.43;;;;;;;;;;5076863;28;20263;-64
2024/01/31 02:38:36;;;;;;;21.60;14.30;;;;;;;;;;5089216;28;20202;-63
2024/01/31 02:41:04;;;;;;;24.20;14.97;;;;;;;;;;5086571;28;20264;-63
2024/01/31 02:43:32;;;;;;;22.20;14.17;;;;;;;;;;5088239;28;20195;-64
2024/01/31 02:45:59;;;;;;;23.90;13.60;;;;;;;;;;5088980;28;20681;-64
2024/01/31 02:48:26;;;;;;;18.03;12.93;;;;;;;;;;5088377;28;20226;-64
2024/01/31 02:50:53;;;;;;;22.77;14.03;;;;;;;;;;5088946;28;20209;-64
2024/01/31 02:53:20;;;;;;;22.30;14.10;;;;;;;;;;5088926;28;20202;-64
2024/01/31 02:55:47;;;;;;;21.93;13.97;;;;;;;;;;5088816;28;20206;-64
2024/01/31 02:58:16;;;;;;;25.27;14.57;;;;;;;;;;5088801;28;20787;-63
2024/01/31 03:00:43;;;;;;;24.47;14.67;;;;;;;;;;5086187;28;20202;-64
2024/01/31 03:03:10;;;;;;;24.03;14.30;;;;;;;;;;5083906;28;20241;-64
2024/01/31 03:05:37;;;;;;;29.23;15.30;;;;;;;;;;5088351;28;20664;-64
2024/01/31 03:08:04;;;;;;;24.87;14.83;;;;;;;;;;5087275;28;20226;-64
2024/01/31 03:10:32;;;;;;;26.40;15.03;;;;;;;;;;5093332;28;20233;-64
2024/01/31 03:12:59;;;;;;;26.73;15.33;;;;;;;;;;5086291;28;20198;-64
2024/01/31 03:15:27;;;;;;;20.13;13.37;;;;;;;;;;5084566;28;20566;-64
2024/01/31 03:17:54;;;;;;;21.63;13.43;;;;;;;;;;5088728;28;20213;-63
2024/01/31 03:20:21;;;;;;;19.70;13.23;;;;;;;;;;5088195;28;20202;-64
2024/01/31 03:22:48;;;;;;;22.23;13.40;;;;;;;;;;5088758;28;20213;-64
2024/01/31 03:25:16;;;;;;;20.97;13.17;;;;;;;;;;5088578;28;20208;-64
2024/01/31 03:27:43;;;;;;;18.20;12.53;;;;;;;;;;5088021;28;20241;-63
2024/01/31 03:30:10;;;;;;;20.57;13.23;;;;;;;;;;5088257;28;20260;-64
2024/01/31 03:32:39;;;;;;;23.83;14.23;;;;;;;;;;5086755;28;20658;-64
2024/01/31 03:35:06;;;;;;;23.27;13.53;;;;;;;;;;5088090;28;20217;-64
2024/01/31 03:37:33;;;;;;;20.97;13.60;;;;;;;;;;5087678;28;20777;-64
2024/01/31 03:40:00;;;;;;;20.20;13.97;;;;;;;;;;5088186;28;20214;-65
2024/01/31 03:42:27;;;;;;;21.00;13.60;;;;;;;;;;5081103;28;20214;-64
2024/01/31 03:44:54;;;;;;;22.43;14.27;;;;;;;;;;5087288;28;20206;-64
2024/01/31 03:47:21;;;;;;;18.63;13.43;;;;;;;;;;5088214;28;20219;-64
2024/01/31 03:49:51;;;;;;;21.83;13.30;;;;;;;;;;5086339;28;20220;-64
2024/01/31 03:52:18;;;;;;;19.93;12.57;;;;;;;;;;5086700;28;20206;-65
2024/01/31 03:54:45;;;;;;;22.07;14.27;;;;;;;;;;5086668;28;20874;-65
2024/01/31 03:57:12;;;;;;;20.40;13.03;;;;;;;;;;5087452;28;20202;-65
2024/01/31 03:59:39;;;;;;;22.13;14.40;;;;;;;;;;5092408;28;20229;-65
2024/01/31 04:02:06;;;;;;;22.30;13.77;;;;;;;;;;5099943;28;20244;-64
2024/01/31 04:04:33;;;;;;;20.57;13.17;;;;;;;;;;5079056;28;20218;-64
2024/01/31 04:07:01;;;;;;;21.73;14.13;;;;;;;;;;5079883;28;20297;-64
2024/01/31 04:09:28;;;;;;;21.60;13.57;;;;;;;;;;5070696;28;20214;-64
2024/01/31 04:11:55;;;;;;;22.60;14.40;;;;;;;;;;5087512;28;20210;-64
2024/01/31 04:14:22;;;;;;;21.07;14.03;;;;;;;;;;5088814;28;20228;-64
2024/01/31 04:16:50;;;;;;;23.20;15.33;;;;;;;;;;5087271;28;20863;-64
2024/01/31 04:19:17;;;;;;;23.17;14.77;;;;;;;;;;5087249;28;20618;-64
2024/01/31 04:21:44;;;;;;;22.13;14.23;;;;;;;;;;5086738;28;20209;-64
2024/01/31 04:24:12;;;;;;;24.33;14.77;;;;;;;;;;5091933;28;20203;-64
2024/01/31 04:26:43;;;;;;;21.60;14.03;;;;;;;;;;5076251;28;20222;-64
2024/01/31 04:29:10;;;;;;;19.97;13.53;;;;;;;;;;5086672;28;20233;-64
2024/01/31 04:31:37;;;;;;;19.30;12.93;;;;;;;;;;5086917;28;20214;-64
2024/01/31 04:34:04;;;;;;;26.13;14.00;;;;;;;;;;5076207;28;20207;-64
2024/01/31 04:36:32;;;;;;;27.87;15.63;;;;;;;;;;5085857;28;20251;-64
2024/01/31 04:38:59;;;;;;;60.93;21.40;;;;;;;;;;5084506;28;20205;-64
2024/01/31 04:41:27;;;;;;;33.00;16.50;;;;;;;;;;5086656;28;20202;-64
2024/01/31 04:43:54;;;;;;;27.10;14.50;;;;;;;;;;5086401;28;20217;-64
2024/01/31 04:46:21;;;;;;;22.63;14.00;;;;;;;;;;5094569;28;20202;-64
2024/01/31 04:48:48;;;;;;;21.60;12.90;;;;;;;;;;5086595;28;20225;-64
2024/01/31 04:51:16;;;;;;;23.17;14.17;;;;;;;;;;5088125;28;20198;-64
2024/01/31 04:53:43;;;;;;;22.17;13.27;;;;;;;;;;5087116;28;20581;-64
2024/01/31 04:56:10;;;;;;;20.00;13.73;;;;;;;;;;5077627;28;20202;-64
2024/01/31 04:58:39;;;;;;;20.93;13.37;;;;;;;;;;5086838;28;20223;-64
2024/01/31 05:01:06;;;;;;;17.80;12.83;;;;;;;;;;5086842;28;20206;-64
2024/01/31 05:03:33;;;;;;;18.17;12.53;;;;;;;;;;5079710;28;20210;-64
2024/01/31 05:06:00;;;;;;;18.77;12.47;;;;;;;;;;5086889;28;20207;-64
2024/01/31 05:08:29;;;;;;;21.63;12.53;;;;;;;;;;5088018;28;20221;-64
2024/01/31 05:10:56;;;;;;;19.83;12.30;;;;;;;;;;5088203;28;20262;-64
2024/01/31 05:13:23;;;;;;;23.07;12.00;;;;;;;;;;5086001;28;20731;-63
2024/01/31 05:15:52;;;;;;;20.93;13.43;;;;;;;;;;5074725;28;20202;-64
2024/01/31 05:18:19;;;;;;;20.23;13.23;;;;;;;;;;5086279;28;20289;-64
2024/01/31 05:20:46;;;;;;;20.70;13.07;;;;;;;;;;5086756;28;20210;-63
2024/01/31 05:23:13;;;;;;;20.53;12.40;;;;;;;;;;5086801;28;20209;-64
2024/01/31 05:25:40;;;;;;;17.30;12.57;;;;;;;;;;5086076;28;20267;-64
2024/01/31 05:28:07;;;;;;;18.63;12.73;;;;;;;;;;5086654;28;20765;-64
2024/01/31 05:30:34;;;;;;;20.43;13.23;;;;;;;;;;5086267;28;20225;-64
2024/01/31 05:33:02;;;;;;;15.90;11.87;;;;;;;;;;5081553;28;20230;-64
2024/01/31 05:35:29;;;;;;;27.93;12.17;;;;;;;;;;5081852;28;20863;-64
2024/01/31 05:37:56;;;;;;;17.10;12.60;;;;;;;;;;5086926;28;20213;-64
2024/01/31 05:40:23;;;;;;;23.27;11.97;;;;;;;;;;5086812;28;20794;-64
2024/01/31 05:42:50;;;;;;;17.07;11.60;;;;;;;;;;5086867;28;20266;-64
2024/01/31 05:45:17;;;;;;;19.20;11.27;;;;;;;;;;5085460;28;20637;-63
2024/01/31 05:47:44;;;;;;;14.60;10.97;;;;;;;;;;5087641;28;20222;-63
2024/01/31 05:50:13;;;;;;;15.17;11.60;;;;;;;;;;5086102;28;20264;-63
2024/01/31 05:52:40;;;;;;;15.10;11.20;;;;;;;;;;5074584;28;20207;-64
2024/01/31 05:55:07;;;;;;;16.93;11.97;;;;;;;;;;5070196;28;20233;-63
2024/01/31 05:57:34;;;;;;;15.37;11.43;;;;;;;;;;5086785;28;20203;-63
2024/01/31 06:00:06;;;;;;;15.77;11.67;;;;;;;;;;5086439;28;20207;-63
2024/01/31 06:02:33;;;;;;;17.80;12.37;;;;;;;;;;5085673;28;20619;-63
2024/01/31 06:05:00;;;;;;;15.27;11.47;;;;;;;;;;5082615;28;20206;-63
2024/01/31 06:07:28;;;;;;;15.23;10.77;;;;;;;;;;5087789;28;20263;-63
2024/01/31 06:09:55;;;;;;;42.77;11.57;;;;;;;;;;5089565;28;20283;-63
2024/01/31 06:12:22;;;;;;;42.40;9.87;;;;;;;;;;5089107;28;20202;-63
2024/01/31 06:14:49;;;;;;;11.60;9.80;;;;;;;;;;5082667;28;20206;-64
2024/01/31 06:17:17;;;;;;;12.70;9.80;;;;;;;;;;5086474;28;20316;-63
2024/01/31 06:19:44;;;;;;;16.07;9.50;;;;;;;;;;5080062;28;20289;-63
2024/01/31 06:22:11;;;;;;;11.07;9.23;;;;;;;;;;5095168;28;20258;-64
2024/01/31 06:24:39;;;;;;;24.83;10.40;;;;;;;;;;5091119;28;20706;-64
2024/01/31 06:27:06;;;;;;;15.40;10.80;;;;;;;;;;5089520;28;20206;-63
2024/01/31 06:29:33;;;;;;;13.93;10.20;;;;;;;;;;5089615;28;20226;-62
2024/01/31 06:32:00;;;;;;;18.87;12.50;;;;;;;;;;5089603;28;20590;-64
2024/01/31 06:34:27;;;;;;;59.43;28.83;;;;;;;;;;5089732;28;20670;-64
2024/01/31 06:36:54;;;;;;;30.53;19.00;;;;;;;;;;5089513;28;20224;-62
2024/01/31 06:39:21;;;;;;;21.43;14.50;;;;;;;;;;5091596;28;20618;-64
2024/01/31 06:41:50;;;;;;;16.87;11.73;;;;;;;;;;5068106;28;20222;-65
2024/01/31 06:44:17;;;;;;;16.03;10.77;;;;;;;;;;5065839;28;20214;-64
2024/01/31 06:46:47;;;;;;;15.70;11.17;;;;;;;;;;5069531;28;20211;-63
2024/01/31 06:49:14;;;;;;;16.40;10.77;;;;;;;;;;5088652;28;20234;-63
2024/01/31 06:51:41;;;;;;;17.53;10.33;;;;;;;;;;5089552;28;20237;-63
2024/01/31 06:54:08;;;;;;;13.90;10.27;;;;;;;;;;5089393;28;20224;-63
2024/01/31 06:56:35;;;;;;;14.97;10.73;;;;;;;;;;5088562;28;20252;-63
2024/01/31 06:59:04;;;;;;;19.57;11.13;;;;;;;;;;5089483;28;20222;-63
2024/01/31 07:01:31;;;;;;;12.90;10.63;;;;;;;;;;5088666;28;20213;-63
2024/01/31 07:03:58;;;;;;;19.00;12.03;;;;;;;;;;5089222;28;20295;-63
2024/01/31 07:06:25;;;;;;;20.37;12.27;;;;;;;;;;5089244;28;20199;-63
2024/01/31 07:08:52;;;;;;;23.00;14.90;;;;;;;;;;5079770;28;20238;-63
2024/01/31 07:11:19;;;;;;;20.60;13.57;;;;;;;;;;5087302;28;20244;-63
2024/01/31 07:13:46;;;;;;;30.40;14.90;;;;;;;;;;5083470;28;20207;-62
2024/01/31 07:16:14;;;;;;;21.57;14.63;;;;;;;;;;5085230;28;20286;-62
2024/01/31 07:18:42;;;;;;;22.33;14.87;;;;;;;;;;5088024;28;20694;-62
2024/01/31 07:21:09;;;;;;;20.83;14.37;;;;;;;;;;5086507;28;20284;-62
2024/01/31 07:23:36;;;;;;;24.67;14.40;;;;;;;;;;5088992;28;20256;-62
2024/01/31 07:26:03;;;;;;;20.27;13.70;;;;;;;;;;5089455;28;20555;-62
2024/01/31 07:28:31;;;;;;;18.27;12.30;;;;;;;;;;5067884;28;20234;-62
2024/01/31 07:30:58;;;;;;;15.43;10.20;;;;;;;;;;5067799;28;20215;-62
2024/01/31 07:33:27;;;;;;;15.37;10.60;;;;;;;;;;5067911;28;20207;-62
2024/01/31 07:35:54;;;;;;;15.23;10.07;;;;;;;;;;5067988;28;20210;-62
2024/01/31 07:38:21;;;;;;;12.00;9.90;;;;;;;;;;5068710;28;20211;-62
2024/01/31 07:40:48;;;;;;;13.70;10.23;;;;;;;;;;5091794;28;20218;-62
2024/01/31 07:43:15;;;;;;;14.83;10.90;;;;;;;;;;5067164;28;20908;-61
2024/01/31 07:45:43;;;;;;;18.53;12.80;;;;;;;;;;5067377;28;20215;-62
2024/01/31 07:48:10;;;;;;;19.30;14.10;;;;;;;;;;5084293;28;20292;-62
2024/01/31 07:50:38;;;;;;;19.77;13.33;;;;;;;;;;5087339;28;20195;-62
2024/01/31 07:53:05;;;;;;;19.57;12.40;;;;;;;;;;5087151;28;20209;-62
2024/01/31 07:55:32;;;;;;;17.73;11.63;;;;;;;;;;5087304;28;20626;-62
2024/01/31 07:57:59;;;;;;;16.13;11.33;;;;;;;;;;5087579;28;20222;-62
2024/01/31 08:00:27;;;;;;;18.40;10.50;;;;;;;;;;5082251;28;20215;-63
2024/01/31 08:02:54;;;;;;;17.33;10.23;;;;;;;;;;5076041;28;20648;-63
2024/01/31 08:05:21;;;;;;;14.40;9.97;;;;;;;;;;5084398;28;20206;-63
2024/01/31 08:07:49;;;;;;;12.17;10.30;;;;;;;;;;5087848;28;20218;-63
2024/01/31 08:10:16;;;;;;;14.73;10.33;;;;;;;;;;5073682;28;20329;-63
2024/01/31 08:12:44;;;;;;;14.77;10.10;;;;;;;;;;5071500;28;20590;-63
2024/01/31 08:15:11;;;;;;;14.53;10.13;;;;;;;;;;5086834;28;20665;-63
2024/01/31 08:17:38;;;;;;;14.57;9.60;;;;;;;;;;5077232;28;20195;-63
2024/01/31 08:20:06;;;;;;;12.97;8.30;;;;;;;;;;5066768;28;20723;-63
2024/01/31 08:22:34;;;;;;;12.60;8.97;;;;;;;;;;5076041;28;20716;-63
2024/01/31 08:25:04;;;;;;;11.03;8.40;;;;;;;;;;5086177;28;20233;-63
2024/01/31 08:27:31;;;;;;;14.10;9.50;;;;;;;;;;5086620;28;20281;-63
2024/01/31 08:29:58;;;;;;;10.90;8.17;;;;;;;;;;5069073;28;20233;-63
2024/01/31 08:32:25;;;;;;;12.67;8.50;;;;;;;;;;5066524;28;20774;-63
2024/01/31 08:34:52;;;;;;;12.40;8.03;;;;;;;;;;5081150;28;20210;-63
2024/01/31 08:37:19;;;;;;;12.97;8.83;;;;;;;;;;5086496;28;20712;-63
2024/01/31 08:39:46;;;;;;;12.93;8.80;;;;;;;;;;5079403;28;20700;-63
2024/01/31 08:42:15;;;;;;;10.67;8.43;;;;;;;;;;5086880;28;20247;-62
2024/01/31 08:44:42;;;;;;;12.37;8.87;;;;;;;;;;5085956;28;20229;-63
2024/01/31 08:47:09;;;;;;;9.03;7.77;;;;;;;;;;5086742;28;20552;-64
2024/01/31 08:49:36;;;;;;;10.93;8.37;;;;;;;;;;5080969;28;20234;-62
2024/01/31 08:52:03;;;;;;;9.87;7.57;;;;;;;;;;5074035;28;20202;-62
2024/01/31 08:54:30;;;;;;;9.63;7.80;;;;;;;;;;5085958;28;20711;-63
2024/01/31 08:56:57;;;;;;;11.10;7.63;;;;;;;;;;5078638;28;20233;-63
2024/01/31 08:59:26;;;;;;;12.37;8.77;;;;;;;;;;5086449;28;20712;-63
2024/01/31 09:01:53;;;;;;;9.77;7.70;;;;;;;;;;5066729;28;20288;-63
2024/01/31 09:04:20;;;;;;;10.83;8.00;;;;;;;;;;5070253;28;20581;-62
2024/01/31 09:06:47;;;;;;;11.93;8.53;;;;;;;;;;5090686;28;20233;-63
2024/01/31 09:09:15;;;;;;;11.17;8.03;;;;;;;;;;5092255;28;20234;-63
2024/01/31 09:11:42;;;;;;;10.80;8.43;;;;;;;;;;5085877;28;20207;-62
2024/01/31 09:14:09;;;;;;;15.27;9.40;;;;;;;;;;5086686;28;20230;-62
2024/01/31 09:16:38;;;;;;;13.87;9.47;;;;;;;;;;5099434;28;20228;-63
2024/01/31 09:19:05;;;;;;;14.83;10.07;;;;;;;;;;5106365;28;20674;-62
2024/01/31 09:21:32;;;;;;;16.73;9.53;;;;;;;;;;5093669;28;20210;-63
2024/01/31 09:23:59;;;;;;;6.70;6.07;;;;;;;;;;5098536;28;20205;-62
2024/01/31 09:26:26;;;;;;;6.47;5.77;;;;;;;;;;5105038;28;20201;-62
2024/01/31 09:28:53;;;;;;;8.80;5.93;;;;;;;;;;5106318;28;20224;-63
2024/01/31 09:31:21;;;;;;;7.23;5.70;;;;;;;;;;5102212;28;20221;-62
2024/01/31 09:33:50;;;;;;;3.70;3.50;;;;;;;;;;5073411;28;20309;-61
2024/01/31 09:36:17;;;;;;;6.47;3.63;;;;;;;;;;5090121;28;20202;-63
2024/01/31 09:38:44;;;;;;;3.57;3.30;;;;;;;;;;5086265;28;20279;-63
2024/01/31 09:41:12;;;;;;;6.10;3.73;;;;;;;;;;5078459;28;20245;-62
2024/01/31 09:43:39;;;;;;;2.97;2.40;;;;;;;;;;5090969;28;20268;-62
2024/01/31 09:46:06;;;;;;;3.27;2.67;;;;;;;;;;5089969;28;20210;-63
2024/01/31 09:48:33;;;;;;;2.53;1.70;;;;;;;;;;5089956;28;20198;-62
2024/01/31 09:51:02;;;;;;;3.60;1.20;;;;;;;;;;5109985;28;20874;-62
2024/01/31 09:53:30;;;;;;;1.30;1.20;;;;;;;;;;5109925;28;20652;-68
2024/01/31 09:55:57;;;;;;;3.53;1.37;;;;;;;;;;5096496;28;20275;-64
2024/01/31 09:58:24;;;;;;;1.90;1.07;;;;;;;;;;5090780;28;20898;-66
2024/01/31 10:00:51;;;;;;;1.17;0.97;;;;;;;;;;5087851;28;20210;-63
2024/01/31 10:03:18;;;;;;;0.97;0.70;;;;;;;;;;5087744;28;20285;-63
2024/01/31 10:05:46;;;;;;;1.03;1.03;;;;;;;;;;5088441;28;20210;-63
2024/01/31 10:08:14;;;;;;;1.70;0.87;;;;;;;;;;5089299;28;20202;-65
2024/01/31 10:10:41;;;;;;;0.93;0.80;;;;;;;;;;5090581;28;20229;-64
2024/01/31 10:13:09;;;;;;;0.83;0.80;;;;;;;;;;5109611;28;20214;-64
2024/01/31 10:15:36;;;;;;;0.73;0.73;;;;;;;;;;5090309;28;20264;-64
2024/01/31 10:18:03;;;;;;;1.73;0.80;;;;;;;;;;5087770;28;20267;-64
2024/01/31 10:20:30;;;;;;;1.00;1.00;;;;;;;;;;5096594;28;20209;-71
2024/01/31 10:22:59;;;;;;;0.93;0.87;;;;;;;;;;5079144;28;20210;-65
2024/01/31 10:25:28;;;;;;;1.03;0.93;;;;;;;;;;5079362;28;20206;-66
2024/01/31 10:27:55;;;;;;;0.90;0.90;;;;;;;;;;5085897;28;20214;-63
2024/01/31 10:30:22;;;;;;;1.97;0.90;;;;;;;;;;5085297;28;20735;-66
2024/01/31 10:32:50;;;;;;;0.73;0.73;;;;;;;;;;5082679;28;20264;-66
2024/01/31 10:35:17;;;;;;;0.83;0.83;;;;;;;;;;5087311;28;20206;-66
2024/01/31 10:37:44;;;;;;;0.60;0.60;;;;;;;;;;5088795;28;20582;-65
2024/01/31 10:40:12;;;;;;;1.33;1.27;;;;;;;;;;5101274;28;20206;-64
2024/01/31 10:42:40;;;;;;;1.43;1.30;;;;;;;;;;5096417;28;20208;-65
2024/01/31 10:45:08;;;;;;;1.70;1.60;;;;;;;;;;5089518;28;20744;-64
2024/01/31 10:47:35;;;;;;;1.77;1.23;;;;;;;;;;5092120;28;20209;-62
2024/01/31 10:50:02;;;;;;;4.77;1.60;;;;;;;;;;5100887;28;20245;-66
2024/01/31 10:52:32;;;;;;;1.17;1.17;;;;;;;;;;5088660;28;20209;-62
2024/01/31 10:55:00;;;;;;;1.50;1.40;;;;;;;;;;5086843;28;20211;-65
2024/01/31 10:57:28;;;;;;;1.40;1.30;;;;;;;;;;5088286;28;20218;-62
2024/01/31 10:59:58;;;;;;;1.13;1.13;;;;;;;;;;5103809;28;20201;-66
2024/01/31 11:02:28;;;;;;;1.10;1.10;;;;;;;;;;5088217;28;20261;-65
2024/01/31 11:04:58;;;;;;;1.30;1.30;;;;;;;;;;5087957;28;20237;-67
2024/01/31 11:07:25;;;;;;;2.53;1.03;;;;;;;;;;5087792;28;20669;-66
2024/01/31 11:09:52;;;;;;;1.27;1.00;;;;;;;;;;5087856;28;20676;-66
2024/01/31 11:12:19;;;;;;;2.20;1.10;;;;;;;;;;5090005;28;20613;-61
2024/01/31 11:14:47;;;;;;;1.30;0.83;;;;;;;;;;5107733;28;20210;-63
2024/01/31 11:17:19;;;;;;;1.10;1.10;;;;;;;;;;5076650;28;20217;-61
2024/01/31 11:19:49;;;;;;;2.40;0.77;;;;;;;;;;5103798;28;20209;-61
2024/01/31 11:22:16;;;;;;;0.70;0.70;;;;;;;;;;5076369;28;20209;-61
2024/01/31 11:24:47;;;;;;;0.47;0.47;;;;;;;;;;5087173;28;20241;-62
2024/01/31 11:27:15;;;;;;;0.90;0.90;;;;;;;;;;5087554;28;20207;-64
2024/01/31 11:29:42;;;;;;;1.63;0.60;;;;;;;;;;5087466;28;20230;-62
2024/01/31 11:32:10;;;;;;;0.50;0.50;;;;;;;;;;5087253;28;20298;-63
2024/01/31 11:34:38;;;;;;;0.60;0.60;;;;;;;;;;5088627;28;20241;-64
2024/01/31 11:37:05;;;;;;;0.60;0.60;;;;;;;;;;5087723;28;20210;-65
2024/01/31 11:39:32;;;;;;;0.97;0.50;;;;;;;;;;5096544;28;20193;-64
2024/01/31 11:42:00;;;;;;;1.23;0.60;;;;;;;;;;5100610;28;20908;-64
2024/01/31 11:44:28;;;;;;;0.80;0.77;;;;;;;;;;5087116;28;20205;-65
2024/01/31 11:46:56;;;;;;;2.47;0.63;;;;;;;;;;5086071;28;20673;-64
2024/01/31 11:49:23;;;;;;;1.23;0.50;;;;;;;;;;5077194;28;20218;-64
2024/01/31 11:51:51;;;;;;;2.83;0.77;;;;;;;;;;5069324;28;20218;-67
2024/01/31 11:54:18;;;;;;;0.50;0.50;;;;;;;;;;5079860;28;20217;-65
2024/01/31 11:56:46;;;;;;;0.40;0.40;;;;;;;;;;5069476;28;20228;-63
2024/01/31 11:59:13;;;;;;;0.60;0.60;;;;;;;;;;5093881;28;20253;-65
2024/01/31 12:01:40;;;;;;;5.30;0.50;;;;;;;;;;5082848;28;20207;-81
2024/01/31 12:04:07;;;;;;;0.83;0.50;;;;;;;;;;5084028;28;20207;-64
2024/01/31 12:06:34;;;;;;;1.90;0.60;;;;;;;;;;5086044;28;20461;-63
2024/01/31 12:09:02;;;;;;;2.40;0.60;;;;;;;;;;5096394;28;20229;-63
2024/01/31 12:11:31;;;;;;;1.03;0.60;;;;;;;;;;5096212;28;20732;-63
2024/01/31 12:13:58;;;;;;;1.87;0.80;;;;;;;;;;5079373;28;20267;-62
2024/01/31 12:16:25;;;;;;;0.77;0.77;;;;;;;;;;5086008;28;20711;-66
2024/01/31 12:19:01;;;;;;;2.90;0.93;;;;;;;;;;5085904;28;20206;-74
2024/01/31 12:21:28;;;;;;;1.17;0.63;;;;;;;;;;5073544;28;20819;-64
2024/01/31 12:23:55;;;;;;;0.80;0.80;;;;;;;;;;5088154;28;20213;-64
2024/01/31 12:26:24;;;;;;;0.90;0.90;;;;;;;;;;5087052;28;20210;-65
2024/01/31 12:28:54;;;;;;;1.60;0.83;;;;;;;;;;5077904;28;20217;-64
2024/01/31 12:31:22;;;;;;;0.87;0.87;;;;;;;;;;5087757;28;20792;-65
2024/01/31 12:33:49;;;;;;;1.27;1.00;;;;;;;;;;5081646;28;20214;-65
2024/01/31 12:36:16;;;;;;;1.43;0.80;;;;;;;;;;5083739;28;20617;-63
2024/01/31 12:38:43;;;;;;;1.00;0.80;;;;;;;;;;5086640;28;20226;-63
2024/01/31 12:41:10;;;;;;;2.03;1.00;;;;;;;;;;5080859;28;20661;-63
2024/01/31 12:43:38;;;;;;;0.77;0.77;;;;;;;;;;5083028;28;20209;-63
2024/01/31 12:46:05;;;;;;;1.17;0.70;;;;;;;;;;5098908;28;20210;-65
2024/01/31 12:48:32;;;;;;;2.43;0.70;;;;;;;;;;5090098;28;20213;-63
2024/01/31 12:50:59;;;;;;;0.80;0.80;;;;;;;;;;5087091;28;20367;-63
2024/01/31 12:53:26;;;;;;;0.73;0.60;;;;;;;;;;5094739;28;20215;-63
2024/01/31 12:55:53;;;;;;;3.73;0.80;;;;;;;;;;5066469;28;20237;-64
2024/01/31 12:58:20;;;;;;;1.20;1.13;;;;;;;;;;5090883;28;20234;-64
2024/01/31 13:00:49;;;;;;;34.43;13.10;;;;;;;;;;5082501;28;20206;-67
2024/01/31 13:03:16;;;;;;;2.27;1.63;;;;;;;;;;5081941;28;20230;-61
2024/01/31 13:05:43;;;;;;;3.13;0.80;;;;;;;;;;5095577;28;20212;-64
2024/01/31 13:08:10;;;;;;;0.40;0.40;;;;;;;;;;5085687;28;20638;-65
2024/01/31 13:10:37;;;;;;;1.13;0.80;;;;;;;;;;5085855;28;20242;-66
2024/01/31 13:13:04;;;;;;;0.57;0.57;;;;;;;;;;5085893;28;20206;-65
2024/01/31 13:15:31;;;;;;;0.67;0.67;;;;;;;;;;5085301;28;20736;-64
2024/01/31 13:17:59;;;;;;;0.60;0.60;;;;;;;;;;5088694;28;20210;-66
2024/01/31 13:20:26;;;;;;;0.70;0.70;;;;;;;;;;5093348;28;20209;-65
2024/01/31 13:22:53;;;;;;;0.70;0.70;;;;;;;;;;5089667;28;20202;-64
2024/01/31 13:25:20;;;;;;;0.90;0.90;;;;;;;;;;5090325;28;20206;-64
2024/01/31 13:27:48;;;;;;;1.63;0.97;;;;;;;;;;5090168;28;20206;-63
2024/01/31 13:30:15;;;;;;;1.20;0.90;;;;;;;;;;5089890;28;20314;-65
2024/01/31 13:32:42;;;;;;;1.13;1.13;;;;;;;;;;5097448;28;20577;-64
2024/01/31 13:35:11;;;;;;;0.83;0.83;;;;;;;;;;5090080;28;20210;-63
2024/01/31 13:37:38;;;;;;;0.93;0.93;;;;;;;;;;5078649;28;20873;-65
2024/01/31 13:40:07;;;;;;;0.60;0.60;;;;;;;;;;5084079;28;20217;-62
2024/01/31 13:42:34;;;;;;;1.70;0.60;;;;;;;;;;5090018;28;20212;-64
2024/01/31 13:45:01;;;;;;;4.23;0.97;;;;;;;;;;5098167;28;20682;-65
2024/01/31 13:47:29;;;;;;;1.37;0.70;;;;;;;;;;5094184;28;20210;-70
2024/01/31 13:49:56;;;;;;;3.23;0.97;;;;;;;;;;5082279;28;20211;-67
2024/01/31 13:52:25;;;;;;;2.77;1.70;;;;;;;;;;5087162;28;20728;-66
2024/01/31 13:54:52;;;;;;;1.30;1.20;;;;;;;;;;5090128;28;20207;-67
2024/01/31 13:57:19;;;;;;;0.83;0.83;;;;;;;;;;5083145;28;20215;-67
2024/01/31 13:59:46;;;;;;;1.40;1.30;;;;;;;;;;5080018;28;20751;-64
2024/01/31 14:02:13;;;;;;;4.13;1.70;;;;;;;;;;5088794;28;20205;-66
2024/01/31 14:04:40;;;;;;;1.90;0.87;;;;;;;;;;5081818;28;20198;-65
2024/01/31 14:07:07;;;;;;;0.77;0.77;;;;;;;;;;5089415;28;20202;-65
2024/01/31 14:09:39;;;;;;;1.80;0.80;;;;;;;;;;5088711;28;20699;-66
2024/01/31 14:12:09;;;;;;;1.37;0.70;;;;;;;;;;5088387;28;20324;-65
2024/01/31 14:14:42;;;;;;;0.60;0.60;;;;;;;;;;5088432;28;20665;-66
2024/01/31 14:17:09;;;;;;;1.03;0.80;;;;;;;;;;5087609;28;20297;-68
2024/01/31 14:19:38;;;;;;;0.60;0.60;;;;;;;;;;5086827;28;20676;-65
2024/01/31 14:22:05;;;;;;;0.67;0.53;;;;;;;;;;5088067;28;20209;-65
2024/01/31 14:24:32;;;;;;;4.43;0.60;;;;;;;;;;5089824;28;20199;-65
2024/01/31 14:27:02;;;;;;;1.27;0.80;;;;;;;;;;5088397;28;20301;-65
2024/01/31 14:29:29;;;;;;;0.73;0.60;;;;;;;;;;5088401;28;20237;-64
2024/01/31 14:31:56;;;;;;;0.50;0.50;;;;;;;;;;5088972;28;20237;-65